Alachua, Florida
Current Conditions -  °F | °C
As of 7:30 AM on Monday 22 Dec 2014 (Local Time) from KGNV Reporting Station
Overcast Overcast  
Wind Chill: 64°   Ceiling: 400
Heat Index: 64°   Visibility: 10mi
Dew Point: 63°   Wind: 8mph
Humidity: 96%   Direction: 130°SE
Pressure: 29.99"   Gusts: NA
Location:  29.78°N, 82.48°W
Report Text: KGNV 221230Z 13007KT 10SM OVC004 18/17 A2999 RMK AO2 T01780172
Loading
Personal Weather Stations






























Interactive Weather Map New forecast layout! Learn more

10-Day Weather Forecast

Advertisements
Track Severe Weather on mobile